Time;durP1;ratioP1;P1;durP2;ratioP2;P2;SDS_P1;SDS_P2;PMS_P1;PMS_P2;Temp;Humidity;BMP_temperature;BMP_pressure;BME280_temperature;BME280_humidity;BME280_pressure;Samples;Min_cycle;Max_cycle;Signal;HPM_P1;HPM_P2
2022/04/09 01:39:03;;;;;;;9.10;1.65;;;;;;;;;;4907379;29;20052;-90
2022/04/09 01:41:29;;;;;;;9.50;1.70;;;;;;;;;;4878968;29;20047;-90
2022/04/09 01:43:55;;;;;;;5.53;1.70;;;;;;;;;;4881153;29;20888;-89
2022/04/09 01:46:21;;;;;;;8.20;1.65;;;;;;;;;;4878222;29;20166;-90
2022/04/09 01:48:48;;;;;;;8.23;1.48;;;;;;;;;;4891418;29;20457;-90
2022/04/09 01:51:14;;;;;;;7.85;1.35;;;;;;;;;;4879471;29;20095;-90
2022/04/09 01:53:40;;;;;;;8.75;1.50;;;;;;;;;;4880075;29;20079;-90
2022/04/09 01:56:06;;;;;;;2.92;1.40;;;;;;;;;;4866271;29;20059;-89
2022/04/09 01:58:33;;;;;;;6.78;1.45;;;;;;;;;;4878310;29;21197;-90
2022/04/09 02:00:59;;;;;;;7.95;1.60;;;;;;;;;;4877471;29;20123;-89
2022/04/09 02:03:26;;;;;;;7.10;2.05;;;;;;;;;;4876712;29;20506;-90
2022/04/09 02:05:52;;;;;;;10.65;1.88;;;;;;;;;;4880614;29;20099;-88
2022/04/09 02:08:19;;;;;;;13.43;2.53;;;;;;;;;;4878962;29;20040;-89
2022/04/09 02:10:45;;;;;;;11.43;2.03;;;;;;;;;;4882563;29;20092;-91
2022/04/09 02:13:12;;;;;;;10.45;2.00;;;;;;;;;;4880925;29;20039;-91
2022/04/09 02:15:38;;;;;;;12.20;2.00;;;;;;;;;;4892453;29;20115;-89
2022/04/09 02:18:04;;;;;;;12.23;1.88;;;;;;;;;;4880075;29;20075;-89
2022/04/09 02:20:31;;;;;;;9.90;1.98;;;;;;;;;;4864558;29;20128;-89
2022/04/09 02:22:57;;;;;;;9.38;1.50;;;;;;;;;;4860171;29;20040;-90
2022/04/09 02:25:23;;;;;;;6.43;1.65;;;;;;;;;;4880368;29;20032;-90
2022/04/09 02:27:49;;;;;;;9.00;1.80;;;;;;;;;;4879909;29;20041;-90
2022/04/09 02:30:15;;;;;;;8.68;1.88;;;;;;;;;;4881018;29;20553;-89
2022/04/09 02:32:45;;;;;;;5.93;1.98;;;;;;;;;;4877027;29;20040;-89
2022/04/09 02:35:12;;;;;;;8.52;1.98;;;;;;;;;;4878377;29;20035;-90
2022/04/09 02:37:38;;;;;;;15.32;2.10;;;;;;;;;;4876584;29;20494;-90
2022/04/09 02:40:05;;;;;;;13.52;1.90;;;;;;;;;;4864064;29;20075;-91
2022/04/09 02:42:31;;;;;;;13.45;2.00;;;;;;;;;;4878301;29;20044;-90
2022/04/09 02:44:57;;;;;;;11.60;2.20;;;;;;;;;;4880351;29;20083;-90
2022/04/09 02:47:23;;;;;;;11.75;1.75;;;;;;;;;;4880838;29;20572;-90
2022/04/09 02:49:49;;;;;;;9.27;2.25;;;;;;;;;;4875646;29;20437;-90
2022/04/09 02:52:16;;;;;;;21.30;2.47;;;;;;;;;;4877841;29;20127;-90
2022/04/09 02:54:42;;;;;;;13.40;2.20;;;;;;;;;;4875725;29;20557;-91
2022/04/09 02:57:08;;;;;;;7.55;2.00;;;;;;;;;;4864641;29;20047;-91
2022/04/09 02:59:34;;;;;;;11.82;2.08;;;;;;;;;;4868479;29;20118;-90
2022/04/09 03:02:00;;;;;;;16.42;2.08;;;;;;;;;;4870439;29;20040;-90
2022/04/09 03:04:26;;;;;;;18.02;2.88;;;;;;;;;;4878162;29;20040;-90
2022/04/09 03:06:52;;;;;;;12.82;2.25;;;;;;;;;;4874858;29;20117;-90
2022/04/09 03:09:18;;;;;;;13.05;2.15;;;;;;;;;;4880165;29;20481;-90
2022/04/09 03:11:44;;;;;;;14.45;2.50;;;;;;;;;;4859245;29;20047;-90
2022/04/09 03:14:10;;;;;;;15.27;2.40;;;;;;;;;;4865980;29;20131;-88
2022/04/09 03:16:36;;;;;;;17.00;2.28;;;;;;;;;;4867737;29;20075;-90
2022/04/09 03:19:03;;;;;;;15.40;2.50;;;;;;;;;;4890642;29;20106;-90
2022/04/09 03:21:30;;;;;;;12.80;2.20;;;;;;;;;;4869621;29;20074;-90
2022/04/09 03:23:56;;;;;;;17.95;2.35;;;;;;;;;;4881109;29;20072;-90
2022/04/09 03:26:22;;;;;;;11.63;2.08;;;;;;;;;;4877869;29;20083;-90
2022/04/09 03:28:48;;;;;;;14.77;2.70;;;;;;;;;;4881100;29;20617;-91
2022/04/09 03:31:14;;;;;;;9.18;1.70;;;;;;;;;;4866052;29;20043;-91
2022/04/09 03:33:40;;;;;;;9.10;1.90;;;;;;;;;;4862533;29;20040;-90
2022/04/09 03:36:07;;;;;;;11.07;2.00;;;;;;;;;;4883934;29;20048;-90
2022/04/09 03:38:33;;;;;;;13.30;2.00;;;;;;;;;;4879598;29;20048;-90
2022/04/09 03:40:59;;;;;;;11.02;2.45;;;;;;;;;;4878714;29;20036;-91
2022/04/09 03:43:26;;;;;;;11.68;1.88;;;;;;;;;;4877070;29;20119;-91
2022/04/09 03:45:52;;;;;;;13.75;2.42;;;;;;;;;;4877668;29;20042;-91
2022/04/09 03:48:18;;;;;;;11.98;1.88;;;;;;;;;;4860231;29;20520;-88
2022/04/09 03:50:44;;;;;;;11.32;2.13;;;;;;;;;;4867401;29;20036;-90
2022/04/09 03:53:10;;;;;;;10.98;1.60;;;;;;;;;;4876698;29;20058;-90
2022/04/09 03:55:36;;;;;;;12.48;1.77;;;;;;;;;;4874103;29;20036;-89
2022/04/09 03:58:02;;;;;;;8.15;1.42;;;;;;;;;;4872269;29;20051;-89
2022/04/09 04:00:29;;;;;;;15.65;1.80;;;;;;;;;;4875112;29;20502;-89
2022/04/09 04:02:57;;;;;;;10.88;1.67;;;;;;;;;;4875000;29;20048;-90
2022/04/09 04:05:23;;;;;;;13.05;2.00;;;;;;;;;;4876374;29;20048;-91
2022/04/09 04:07:49;;;;;;;10.82;1.73;;;;;;;;;;4874982;29;20052;-90
2022/04/09 04:10:15;;;;;;;13.23;1.90;;;;;;;;;;4879372;29;20044;-91
2022/04/09 04:12:42;;;;;;;12.90;1.83;;;;;;;;;;4882797;29;20433;-89
2022/04/09 04:15:09;;;;;;;8.90;1.98;;;;;;;;;;4875731;29;20041;-91
2022/04/09 04:17:39;;;;;;;14.02;1.90;;;;;;;;;;4888888;29;20042;-90
2022/04/09 04:20:06;;;;;;;8.05;2.00;;;;;;;;;;4864526;29;20040;-88
2022/04/09 04:22:32;;;;;;;10.95;1.77;;;;;;;;;;4875907;29;20046;-88
2022/04/09 04:24:58;;;;;;;9.93;1.80;;;;;;;;;;4862318;29;20046;-90
2022/04/09 04:27:24;;;;;;;10.77;1.77;;;;;;;;;;4874844;29;20048;-89
2022/04/09 04:29:50;;;;;;;10.15;1.98;;;;;;;;;;4884949;29;20143;-88
2022/04/09 04:32:16;;;;;;;14.98;2.20;;;;;;;;;;4854560;29;20381;-88
2022/04/09 04:34:42;;;;;;;9.90;1.40;;;;;;;;;;4878134;29;20051;-90
2022/04/09 04:37:09;;;;;;;7.93;1.30;;;;;;;;;;4862884;29;20040;-88
2022/04/09 04:39:35;;;;;;;12.30;1.42;;;;;;;;;;4875083;29;20083;-90
2022/04/09 04:42:01;;;;;;;11.73;1.52;;;;;;;;;;4864003;29;20064;-89
2022/04/09 04:44:27;;;;;;;7.85;1.52;;;;;;;;;;4867631;29;20044;-89
2022/04/09 04:46:53;;;;;;;5.45;1.13;;;;;;;;;;4878240;29;20042;-89
2022/04/09 04:49:19;;;;;;;5.25;1.08;;;;;;;;;;4867955;29;20036;-90
2022/04/09 04:51:45;;;;;;;11.77;1.60;;;;;;;;;;4875372;29;20726;-89
2022/04/09 04:54:11;;;;;;;11.20;1.73;;;;;;;;;;4874089;29;20036;-89
2022/04/09 04:56:37;;;;;;;8.27;1.20;;;;;;;;;;4878003;29;20040;-89
2022/04/09 04:59:04;;;;;;;13.18;1.63;;;;;;;;;;4875978;29;20126;-88
2022/04/09 05:01:30;;;;;;;6.93;1.40;;;;;;;;;;4876970;29;20131;-90
2022/04/09 05:03:56;;;;;;;10.52;1.30;;;;;;;;;;4890200;29;20051;-91
2022/04/09 05:06:22;;;;;;;10.18;1.85;;;;;;;;;;4890290;29;20048;-90
2022/04/09 05:08:48;;;;;;;8.50;1.30;;;;;;;;;;4875311;29;20040;-89
2022/04/09 05:11:14;;;;;;;11.10;1.70;;;;;;;;;;4865017;29;20054;-89
2022/04/09 05:13:40;;;;;;;13.40;1.95;;;;;;;;;;4876093;29;20092;-89
2022/04/09 05:16:06;;;;;;;9.23;1.63;;;;;;;;;;4878411;29;20044;-91
2022/04/09 05:18:33;;;;;;;10.85;1.45;;;;;;;;;;4873908;29;20047;-88
2022/04/09 05:20:59;;;;;;;6.40;1.38;;;;;;;;;;4853156;29;20151;-89
2022/04/09 05:23:25;;;;;;;9.68;1.30;;;;;;;;;;4875678;29;20120;-90
2022/04/09 05:25:51;;;;;;;9.50;1.55;;;;;;;;;;4871298;29;20048;-91
2022/04/09 05:28:18;;;;;;;18.33;1.92;;;;;;;;;;4854503;29;20036;-88
2022/04/09 05:30:44;;;;;;;10.07;1.85;;;;;;;;;;4878277;29;20452;-89
2022/04/09 05:33:10;;;;;;;6.50;1.50;;;;;;;;;;4889521;29;20036;-89
2022/04/09 05:35:36;;;;;;;11.45;1.85;;;;;;;;;;4865502;29;20044;-89
2022/04/09 05:38:03;;;;;;;11.85;1.85;;;;;;;;;;4864401;29;20048;-88
2022/04/09 05:40:29;;;;;;;13.95;1.67;;;;;;;;;;4872026;29;20037;-89
2022/04/09 05:42:56;;;;;;;14.70;2.63;;;;;;;;;;4875586;29;20511;-89
2022/04/09 05:45:22;;;;;;;16.48;2.50;;;;;;;;;;4875205;29;20107;-88
2022/04/09 05:47:48;;;;;;;11.57;1.70;;;;;;;;;;4871119;29;20711;-89
2022/04/09 05:50:15;;;;;;;13.05;1.75;;;;;;;;;;4886523;29;20052;-89
2022/04/09 05:52:41;;;;;;;10.50;1.75;;;;;;;;;;4867840;29;20036;-88
2022/04/09 05:55:08;;;;;;;12.80;1.73;;;;;;;;;;4862013;29;20040;-88
2022/04/09 05:57:34;;;;;;;12.15;2.53;;;;;;;;;;4879775;29;20370;-88
2022/04/09 06:00:05;;;;;;;13.27;2.22;;;;;;;;;;4860176;29;20051;-89
2022/04/09 06:02:31;;;;;;;11.65;2.05;;;;;;;;;;4885596;29;20063;-92
2022/04/09 06:05:00;;;;;;;14.80;2.55;;;;;;;;;;4874319;29;20111;-88
2022/04/09 06:07:26;;;;;;;12.95;2.10;;;;;;;;;;4870279;29;20052;-88
2022/04/09 06:09:52;;;;;;;11.93;2.30;;;;;;;;;;4862565;29;20040;-88
2022/04/09 06:12:19;;;;;;;15.52;2.38;;;;;;;;;;4888385;29;20036;-92
2022/04/09 06:14:45;;;;;;;13.23;1.70;;;;;;;;;;4871617;29;20482;-91
2022/04/09 06:17:11;;;;;;;13.48;2.25;;;;;;;;;;4876727;29;20095;-90
2022/04/09 06:19:38;;;;;;;14.77;2.40;;;;;;;;;;4876938;29;21205;-92
2022/04/09 06:22:04;;;;;;;13.07;1.73;;;;;;;;;;4877244;29;20143;-90
2022/04/09 06:24:30;;;;;;;8.05;1.80;;;;;;;;;;4877331;29;20074;-89
2022/04/09 06:26:56;;;;;;;15.02;1.73;;;;;;;;;;4861472;29;20048;-88
2022/04/09 06:29:22;;;;;;;6.45;1.27;;;;;;;;;;4859500;29;20044;-89
2022/04/09 06:31:48;;;;;;;8.70;1.60;;;;;;;;;;4871423;29;20721;-90
2022/04/09 06:34:18;;;;;;;4.97;1.40;;;;;;;;;;4857844;29;20047;-89
2022/04/09 06:36:44;;;;;;;11.18;1.80;;;;;;;;;;4885618;29;20092;-90
2022/04/09 06:39:10;;;;;;;11.75;1.77;;;;;;;;;;4873259;29;20050;-89
2022/04/09 06:41:36;;;;;;;10.63;2.08;;;;;;;;;;4874253;29;20048;-91
2022/04/09 06:44:03;;;;;;;10.27;1.50;;;;;;;;;;4879109;29;20054;-88
2022/04/09 06:46:29;;;;;;;9.68;1.63;;;;;;;;;;4874402;29;20135;-92
2022/04/09 06:48:55;;;;;;;14.32;2.03;;;;;;;;;;4866439;29;20040;-92
2022/04/09 06:51:22;;;;;;;5.22;1.40;;;;;;;;;;4880434;29;20135;-90
2022/04/09 06:53:49;;;;;;;11.52;2.03;;;;;;;;;;4874093;29;20040;-89
2022/04/09 06:56:15;;;;;;;13.88;1.58;;;;;;;;;;4882880;29;20068;-90
2022/04/09 06:58:41;;;;;;;12.60;1.67;;;;;;;;;;4874451;29;20036;-90
2022/04/09 07:01:08;;;;;;;19.65;2.70;;;;;;;;;;4872585;29;20047;-92
2022/04/09 07:03:34;;;;;;;11.25;2.08;;;;;;;;;;4875300;29;20056;-89
2022/04/09 07:06:00;;;;;;;11.68;1.95;;;;;;;;;;4876718;29;20158;-90
2022/04/09 07:08:26;;;;;;;10.45;2.28;;;;;;;;;;4876693;29;20058;-90
2022/04/09 07:10:52;;;;;;;16.20;2.25;;;;;;;;;;4878638;29;20059;-89
2022/04/09 07:13:18;;;;;;;12.98;2.05;;;;;;;;;;4872385;29;20032;-89
2022/04/09 07:15:44;;;;;;;9.00;1.67;;;;;;;;;;4886319;29;20040;-89
2022/04/09 07:18:10;;;;;;;13.50;1.90;;;;;;;;;;4878112;29;20040;-89
2022/04/09 07:20:37;;;;;;;15.60;2.28;;;;;;;;;;4877380;29;20040;-90
2022/04/09 07:23:03;;;;;;;21.75;1.92;;;;;;;;;;4859235;29;20123;-91
2022/04/09 07:25:30;;;;;;;18.95;2.35;;;;;;;;;;4886942;29;20490;-88
2022/04/09 07:27:56;;;;;;;7.97;1.70;;;;;;;;;;4857660;29;20044;-90
2022/04/09 07:30:24;;;;;;;11.35;1.85;;;;;;;;;;4875674;29;20108;-93
2022/04/09 08:14:22;;;;;;;7.22;1.55;;;;;;;;;;4915721;29;20045;-92
2022/04/09 08:16:48;;;;;;;17.23;1.67;;;;;;;;;;4876066;29;20032;-89
2022/04/09 08:19:18;;;;;;;10.32;1.65;;;;;;;;;;4884964;29;20098;-91
2022/04/09 08:21:47;;;;;;;9.48;1.33;;;;;;;;;;4865412;29;20422;-89
2022/04/09 08:24:16;;;;;;;5.65;1.35;;;;;;;;;;4873513;29;20040;-91
2022/04/09 08:26:44;;;;;;;8.15;1.55;;;;;;;;;;4864023;29;20140;-91
2022/04/09 08:29:15;;;;;;;10.48;1.27;;;;;;;;;;4894508;29;20532;-89
2022/04/09 08:31:43;;;;;;;15.43;2.05;;;;;;;;;;4871826;29;20101;-88
2022/04/09 08:34:09;;;;;;;11.32;1.70;;;;;;;;;;4871683;29;20131;-93
2022/04/09 08:36:36;;;;;;;11.00;1.67;;;;;;;;;;4882598;29;20051;-87
2022/04/09 08:39:02;;;;;;;6.93;1.45;;;;;;;;;;4870468;29;20047;-90
2022/04/09 08:41:28;;;;;;;9.88;1.75;;;;;;;;;;4871667;29;20108;-88
2022/04/09 08:43:54;;;;;;;11.55;2.03;;;;;;;;;;4871663;29;20082;-88
2022/04/09 08:46:21;;;;;;;8.38;1.27;;;;;;;;;;4879839;29;20134;-88
2022/04/09 08:48:49;;;;;;;9.13;1.55;;;;;;;;;;4873761;29;20044;-86
2022/04/09 08:51:15;;;;;;;8.48;1.70;;;;;;;;;;4874682;29;20037;-91
2022/04/09 08:53:42;;;;;;;11.85;1.63;;;;;;;;;;4876942;29;20099;-88
2022/04/09 08:56:10;;;;;;;11.98;1.33;;;;;;;;;;4874438;29;20068;-91
2022/04/09 08:58:36;;;;;;;12.75;1.80;;;;;;;;;;4875031;29;20111;-87
2022/04/09 09:01:02;;;;;;;10.38;1.20;;;;;;;;;;4879004;29;20053;-88
2022/04/09 09:03:29;;;;;;;13.95;2.00;;;;;;;;;;4874267;29;20323;-86
2022/04/09 09:05:56;;;;;;;11.55;1.35;;;;;;;;;;4879998;29;20112;-90
2022/04/09 09:08:44;;;;;;;10.85;1.38;;;;;;;;;;4887623;29;20047;-89
2022/04/09 09:11:10;;;;;;;4.55;1.15;;;;;;;;;;4856136;29;20045;-88
2022/04/09 09:13:47;;;;;;;10.85;1.48;;;;;;;;;;4875813;29;20387;-88
2022/04/09 09:16:23;;;;;;;7.90;1.60;;;;;;;;;;4879521;29;20072;-88
2022/04/09 09:18:56;;;;;;;8.32;1.52;;;;;;;;;;4865711;29;20085;-89
2022/04/09 09:21:23;;;;;;;10.77;1.27;;;;;;;;;;4890550;29;20135;-92
2022/04/09 09:23:50;;;;;;;6.53;1.60;;;;;;;;;;4883617;29;20040;-88
2022/04/09 09:26:21;;;;;;;7.40;1.83;;;;;;;;;;4874137;29;20052;-88
2022/04/09 09:28:55;;;;;;;8.52;1.85;;;;;;;;;;4875961;29;20041;-90
2022/04/09 09:31:51;;;;;;;10.07;1.75;;;;;;;;;;4880143;29;20044;-91
2022/04/09 09:34:21;;;;;;;10.05;1.65;;;;;;;;;;4861693;29;20045;-92
2022/04/09 09:36:49;;;;;;;11.90;1.45;;;;;;;;;;4880811;29;20064;-90
2022/04/09 09:39:16;;;;;;;9.25;1.40;;;;;;;;;;4882468;29;20306;-90
2022/04/09 09:41:48;;;;;;;6.72;1.58;;;;;;;;;;4883368;29;20044;-90
2022/04/09 09:44:26;;;;;;;11.13;1.73;;;;;;;;;;4886469;29;20040;-93
2022/04/09 09:46:53;;;;;;;13.65;1.55;;;;;;;;;;4880699;29;20077;-90
2022/04/09 09:49:22;;;;;;;9.43;1.92;;;;;;;;;;4887500;29;20578;-90
2022/04/09 09:52:05;;;;;;;11.00;1.85;;;;;;;;;;4867753;29;20498;-91
2022/04/09 09:54:31;;;;;;;11.57;2.10;;;;;;;;;;4884135;29;20241;-88
2022/04/09 09:57:01;;;;;;;9.57;1.35;;;;;;;;;;4886964;29;20087;-92
2022/04/09 09:59:28;;;;;;;11.13;1.15;;;;;;;;;;4875907;29;20126;-90
2022/04/09 10:01:55;;;;;;;4.45;1.00;;;;;;;;;;4878516;29;20387;-89
2022/04/09 10:04:22;;;;;;;11.02;1.13;;;;;;;;;;4873648;29;20048;-88
2022/04/09 10:06:51;;;;;;;13.85;1.88;;;;;;;;;;4882594;29;20059;-90
2022/04/09 10:09:21;;;;;;;5.72;1.38;;;;;;;;;;4896326;29;20048;-88
2022/04/09 10:11:54;;;;;;;9.95;1.17;;;;;;;;;;4883819;29;20048;-87
2022/04/09 10:14:20;;;;;;;;;;;;;;;;;;4876002;29;20041;-87
2022/04/09 10:16:47;;;;;;;7.78;1.40;;;;;;;;;;4892348;29;20388;-90
2022/04/09 10:19:14;;;;;;;11.38;1.85;;;;;;;;;;4863602;29;20040;-87
2022/04/09 10:21:46;;;;;;;12.23;1.35;;;;;;;;;;4879530;29;20055;-89
2022/04/09 10:24:18;;;;;;;8.53;1.60;;;;;;;;;;4864310;29;20131;-88
2022/04/09 10:26:44;;;;;;;12.70;1.65;;;;;;;;;;4879547;29;20118;-88
2022/04/09 10:29:11;;;;;;;12.63;2.05;;;;;;;;;;4891670;29;20143;-91
2022/04/09 10:31:38;;;;;;;13.60;1.80;;;;;;;;;;4878686;29;20048;-87
2022/04/09 10:34:06;;;;;;;7.60;1.60;;;;;;;;;;4881875;29;20040;-90
2022/04/09 10:36:41;;;;;;;7.22;1.83;;;;;;;;;;4882135;29;20036;-88
2022/04/09 10:39:39;;;;;;;8.82;1.50;;;;;;;;;;4879649;29;20101;-90
2022/04/09 10:42:11;;;;;;;6.35;1.85;;;;;;;;;;4868612;29;20104;-90
2022/04/09 10:44:44;;;;;;;8.15;1.25;;;;;;;;;;4864909;29;20048;-90
2022/04/09 10:47:16;;;;;;;5.50;1.20;;;;;;;;;;4872333;29;20533;-89
2022/04/09 10:50:02;;;;;;;8.50;1.50;;;;;;;;;;4854894;29;20076;-89
2022/04/09 10:52:37;;;;;;;4.80;1.30;;;;;;;;;;4880104;29;20083;-90
2022/04/09 10:55:11;;;;;;;7.05;1.20;;;;;;;;;;4870280;29;20440;-90
2022/04/09 10:57:44;;;;;;;5.85;1.00;;;;;;;;;;4863870;29;20470;-93
2022/04/09 11:00:23;;;;;;;8.93;1.42;;;;;;;;;;4870930;29;20040;-90
2022/04/09 11:03:08;;;;;;;4.55;1.15;;;;;;;;;;4881927;29;20043;-91
2022/04/09 11:05:39;;;;;;;4.78;0.90;;;;;;;;;;4873457;29;20326;-91
2022/04/09 11:08:10;;;;;;;6.07;1.23;;;;;;;;;;4878255;29;20044;-91
2022/04/09 11:10:37;;;;;;;9.52;1.10;;;;;;;;;;4877468;29;20045;-89
2022/04/09 11:13:10;;;;;;;9.57;1.10;;;;;;;;;;4878560;29;20090;-87
2022/04/09 11:15:36;;;;;;;2.80;0.95;;;;;;;;;;4867482;29;20068;-91
2022/04/09 11:18:05;;;;;;;7.32;1.02;;;;;;;;;;4879818;29;20036;-94
2022/04/09 11:20:33;;;;;;;2.75;0.90;;;;;;;;;;4868627;29;20036;-90
2022/04/09 11:23:20;;;;;;;7.07;1.13;;;;;;;;;;4873992;29;20072;-89
2022/04/09 11:25:47;;;;;;;7.22;1.00;;;;;;;;;;4874285;29;20045;-91
2022/04/09 11:28:17;;;;;;;7.93;1.10;;;;;;;;;;4877289;29;20493;-92
2022/04/09 11:31:05;;;;;;;6.25;1.30;;;;;;;;;;4882843;29;20045;-91
2022/04/09 11:33:31;;;;;;;12.60;1.88;;;;;;;;;;4869404;29;20136;-90
2022/04/09 11:36:00;;;;;;;11.32;1.40;;;;;;;;;;4885701;29;20045;-92
2022/04/09 11:38:27;;;;;;;14.00;1.20;;;;;;;;;;4874383;29;20054;-92
2022/04/09 11:40:57;;;;;;;9.13;1.00;;;;;;;;;;4880712;29;20044;-92
2022/04/09 11:43:23;;;;;;;10.48;1.55;;;;;;;;;;4866097;29;20045;-93
2022/04/09 11:45:50;;;;;;;6.45;1.15;;;;;;;;;;4876555;29;20172;-91
2022/04/09 11:48:25;;;;;;;6.03;1.10;;;;;;;;;;4865000;29;20127;-91
2022/04/09 11:51:04;;;;;;;5.55;1.08;;;;;;;;;;4874335;29;20070;-91
2022/04/09 11:53:42;;;;;;;9.48;1.30;;;6.40;99.90;;;;;;4886102;29;20043;-91
2022/04/09 11:56:08;;;;;;;6.07;0.90;;;8.20;99.90;;;;;;4873370;29;20135;-91
2022/04/09 11:58:37;;;;;;;7.22;1.00;;;7.40;99.90;;;;;;4871965;29;20132;-90
2022/04/09 12:01:08;;;;;;;8.25;1.30;;;;;;;;;;4894850;29;20098;-91
2022/04/09 12:03:34;;;;;;;9.70;1.25;;;;;;;;;;4894845;29;20103;-90
2022/04/09 12:06:01;;;;;;;12.25;1.85;;;;;;;;;;4879815;29;20036;-92
2022/04/09 12:08:29;;;;;;;8.30;1.85;;;;;;;;;;4878809;29;20077;-89
2022/04/09 12:14:01;;;;;;;12.07;1.77;;;;;;;;;;4898660;29;20048;-92
2022/04/09 12:16:46;;;;;;;12.57;2.30;;;;;;;;;;4875554;29;20510;-91
2022/04/09 12:19:31;;;;;;;12.88;1.95;;;;;;;;;;4908361;29;20058;-92
2022/04/09 12:22:19;;;;;;;10.60;1.63;;;;;;;;;;4896750;29;20104;-92
2022/04/09 12:24:56;;;;;;;7.25;1.45;;;7.10;99.90;;;;;;4890282;29;20162;-91
2022/04/09 12:27:56;;;;;;;5.05;1.23;;;8.20;99.90;;;;;;4872832;29;20125;-93
2022/04/09 12:30:47;;;;;;;13.52;1.80;;;;;;;;;;4892641;29;20055;-93
2022/04/09 12:39:37;;;;;;;6.13;2.05;;;;;;;;;;4916240;29;20048;-93
2022/04/09 12:42:07;;;;;;;5.38;1.02;;;;;;;;;;4870204;29;20044;-93
2022/04/09 12:44:39;;;;;;;8.77;1.65;;;;;;;;;;4872636;29;20409;-91
2022/04/09 12:47:05;;;;;;;5.85;1.75;;;;;;;;;;4857367;29;20099;-89
2022/04/09 12:49:40;;;;;;;8.43;2.33;;;8.20;99.90;;;;;;4893938;29;20099;-90
2022/04/09 12:52:08;;;;;;;5.07;1.27;;;7.20;99.90;;;;;;4858290;29;20096;-90
2022/04/09 12:54:34;;;;;;;3.63;0.80;;;7.10;99.90;;;;;;4872760;29;20040;-90
2022/04/09 12:57:05;;;;;;;4.40;1.05;;;7.20;99.90;;;;;;4859631;29;20064;-93
2022/04/09 12:59:30;;;;;;;6.07;1.08;;;7.40;99.90;;;;;;4858004;29;20123;-90
2022/04/09 13:01:59;;;;;;;4.95;0.90;;;;;;;;;;4866148;29;20108;-91
2022/04/09 13:04:28;;;;;;;2.55;0.63;;;;;;;;;;4895864;29;20047;-91
2022/04/09 13:06:55;;;;;;;4.75;0.80;;;;;;;;;;4879405;29;20111;-90
2022/04/09 13:09:21;;;;;;;5.55;1.02;;;;;;;;;;4892654;29;20044;-89
2022/04/09 13:11:48;;;;;;;5.00;0.80;;;;;;;;;;4899447;29;20090;-91
2022/04/09 13:14:14;;;;;;;3.50;0.63;;;;;;;;;;4882579;29;20040;-92
2022/04/09 13:16:40;;;;;;;5.45;1.00;;;;;;;;;;4869694;29;20066;-92
2022/04/09 13:19:06;;;;;;;5.78;0.90;;;;;;;;;;4884243;29;20421;-91
2022/04/09 13:21:33;;;;;;;12.40;1.60;;;;;;;;;;4879601;29;20115;-92
2022/04/09 13:24:02;;;;;;;5.85;1.15;;;;;;;;;;4887105;29;20076;-90
2022/04/09 13:26:28;;;;;;;8.45;1.42;;;;;;;;;;4883073;29;20045;-91
2022/04/09 13:29:02;;;;;;;6.88;1.42;;;;;;;;;;4886916;29;20405;-92
2022/04/09 13:31:32;;;;;;;5.82;1.15;;;;;;;;;;4893109;29;20076;-91
2022/04/09 13:34:02;;;;;;;7.03;1.15;;;;;;;;;;4874972;29;20036;-88
2022/04/09 13:36:29;;;;;;;3.33;1.10;;;;;;;;;;4889494;29;20040;-90
2022/04/09 13:38:56;;;;;;;7.35;0.88;;;;;;;;;;4887598;29;20040;-91
2022/04/09 13:41:25;;;;;;;8.45;1.27;;;;;;;;;;4881582;29;20076;-90
2022/04/09 13:43:52;;;;;;;5.50;1.15;;;;;;;;;;4878406;29;20044;-90
2022/04/09 13:46:21;;;;;;;6.80;1.13;;;7.60;99.90;;;;;;4864505;29;20040;-91
2022/04/09 13:48:47;;;;;;;5.55;0.90;;;;;;;;;;4876302;29;20048;-90
2022/04/09 13:51:14;;;;;;;7.90;1.40;;;;;;;;;;4868217;29;20509;-90
2022/04/09 13:53:40;;;;;;;5.10;0.90;;;;;;;;;;4865905;29;20039;-92
2022/04/09 13:56:14;;;;;;;3.22;0.70;;;10.00;99.90;;;;;;4876007;29;20040;-90
2022/04/09 13:58:42;;;;;;;3.20;0.68;;;;;;;;;;4887126;29;20036;-92
2022/04/09 14:01:13;;;;;;;4.85;0.55;;;;;;;;;;4878167;29;20044;-90
2022/04/09 14:03:40;;;;;;;4.90;0.90;;;;;;;;;;4882477;29;20505;-90
2022/04/09 14:06:09;;;;;;;4.50;0.80;;;;;;;;;;4879037;29;20040;-90
2022/04/09 14:08:35;;;;;;;2.92;0.90;;;;;;;;;;4881447;29;20354;-90
2022/04/09 14:11:05;;;;;;;3.22;0.90;;;;;;;;;;4865320;29;20056;-91
2022/04/09 14:13:34;;;;;;;5.38;0.75;;;;;;;;;;4876666;29;20040;-92
2022/04/09 14:16:17;;;;;;;5.20;0.60;;;10.00;99.90;;;;;;4875711;29;20047;-92
2022/04/09 14:18:46;;;;;;;5.57;1.05;;;;;;;;;;4869767;29;20040;-91
2022/04/09 14:21:39;;;;;;;1.65;0.70;;;;;;;;;;4884010;29;20075;-89
2022/04/09 14:24:15;;;;;;;1.75;0.57;;;;;;;;;;4880687;29;20404;-93
2022/04/09 14:27:20;;;;;;;1.90;0.40;;;;;;;;;;4869888;29;20036;-92
2022/04/09 14:29:47;;;;;;;1.80;0.60;;;;;;;;;;4897978;29;20056;-92
2022/04/09 14:32:34;;;;;;;5.53;0.60;;;;;;;;;;4885082;29;20071;-91
2022/04/09 14:35:10;;;;;;;2.58;0.60;;;14.00;99.90;;;;;;4853967;29;20513;-91
2022/04/09 14:37:39;;;;;;;2.95;0.82;;;15.10;99.90;;;;;;4869278;29;20039;-92
2022/04/09 14:40:05;;;;;;;5.20;0.82;;;14.80;99.90;;;;;;4867055;29;20086;-88
2022/04/09 14:42:31;;;;;;;5.82;1.40;;;14.20;99.90;;;;;;4845031;29;20056;-88
2022/04/09 14:44:57;;;;;;;5.68;0.65;;;13.70;99.90;;;;;;4867710;29;20564;-91
2022/04/09 14:47:22;;;;;;;2.30;0.82;;;13.40;99.90;;;;;;4878359;29;20083;-93
2022/04/09 14:49:51;;;;;;;5.50;0.90;;;13.30;99.90;;;;;;4868423;29;20108;-93
2022/04/09 14:52:20;;;;;;;4.13;0.98;;;12.70;99.90;;;;;;4867847;29;20401;-94
2022/04/09 14:54:46;;;;;;;5.10;0.85;;;;;;;;;;4879383;29;20043;-92
2022/04/09 14:57:13;;;;;;;5.10;1.00;;;;;;;;;;4878964;29;20398;-91
2022/04/09 14:59:41;;;;;;;4.03;0.80;;;;;;;;;;4882002;29;20044;-91
2022/04/09 15:02:09;;;;;;;3.88;0.85;;;;;;;;;;4864292;29;20516;-91
2022/04/09 15:04:42;;;;;;;5.65;0.90;;;;;;;;;;4870819;29;20040;-92
2022/04/09 15:07:08;;;;;;;2.00;0.70;;;11.80;99.90;;;;;;4899959;29;20095;-90
2022/04/09 15:09:34;;;;;;;3.55;0.95;;;14.70;99.90;;;;;;4877218;29;20326;-91
2022/04/09 15:12:03;;;;;;;8.30;0.90;;;15.20;99.90;;;;;;4873974;29;20501;-93
2022/04/09 15:14:38;;;;;;;5.05;0.95;;;;;;;;;;4871091;29;20040;-92
2022/04/09 15:17:05;;;;;;;5.88;0.82;;;15.00;99.90;;;;;;4863181;29;20039;-92
2022/04/09 15:19:31;;;;;;;5.78;1.27;;;12.90;99.90;;;;;;4885227;29;20398;-92
2022/04/09 15:22:00;;;;;;;5.43;0.82;;;12.00;99.90;;;;;;4889786;29;20036;-90
2022/04/09 15:24:26;;;;;;;4.38;0.90;;;11.50;99.90;;;;;;4870879;29;20049;-91
2022/04/09 15:26:56;;;;;;;4.55;1.10;;;;;;;;;;4886610;29;20421;-91
2022/04/09 15:29:25;;;;;;;5.50;0.90;;;11.10;99.90;;;;;;4875042;29;20142;-89
2022/04/09 15:31:54;;;;;;;1.10;0.50;;;;;;;;;;4878172;29;20044;-91
2022/04/09 15:34:20;;;;;;;8.60;0.80;;;;;;;;;;4856843;29;20410;-90
2022/04/09 15:36:49;;;;;;;3.85;0.90;;;;;;;;;;4881316;29;20052;-90
2022/04/09 15:39:18;;;;;;;5.10;0.80;;;;;;;;;;4876870;29;20036;-90
2022/04/09 15:41:50;;;;;;;3.70;0.60;;;;;;;;;;4886765;29;20044;-91
2022/04/09 15:47:26;;;;;;;7.65;1.05;;;;;;;;;;4891679;29;20086;-91
2022/04/09 15:49:55;;;;;;;3.95;0.73;;;;;;;;;;4883261;29;20123;-92
2022/04/09 15:52:51;;;;;;;;;;;;;;;;;;;;;
2022/04/09 15:55:20;;;;;;;5.18;0.80;;;;;;;;;;4889497;29;20048;-92
2022/04/09 15:58:00;;;;;;;6.93;0.90;;;;;;;;;;4868776;29;20048;-94
2022/04/09 16:00:26;;;;;;;8.45;1.00;;;;;;;;;;4872275;29;20051;-93
2022/04/09 16:02:56;;;;;;;2.47;0.82;;;;;;;;;;4873814;29;20067;-95
2022/04/09 16:05:25;;;;;;;5.53;1.10;;;;;;;;;;4881517;29;20047;-92
2022/04/09 16:07:54;;;;;;;9.50;1.48;;;;;;;;;;4856871;29;20100;-92
2022/04/09 16:10:20;;;;;;;6.68;1.40;;;;;;;;;;4884248;29;20657;-92
2022/04/09 16:12:50;;;;;;;14.52;1.45;;;;;;;;;;4886565;29;20434;-93
2022/04/09 16:18:31;;;;;;;8.85;1.50;;;;;;;;;;4870809;29;20040;-91
2022/04/09 16:21:25;;;;;;;13.07;1.60;;;;;;;;;;4881783;29;20044;-92
2022/04/09 16:24:32;;;;;;;10.10;1.42;;;10.00;99.90;;;;;;4883599;29;20098;-91
2022/04/09 16:27:01;;;;;;;10.38;1.30;;;;;;;;;;4812991;29;20121;-93
2022/04/09 16:29:33;;;;;;;8.15;1.67;;;;;;;;;;4841886;29;20049;-92
2022/04/09 16:32:46;;;;;;;;;;;;;;;;;;;;;
2022/04/09 16:35:22;;;;;;;8.40;1.90;;;;;;;;;;4844417;29;20219;-92
2022/04/09 16:38:09;;;;;;;9.95;1.60;;;;;;;;;;4864916;29;20091;-92
2022/04/09 16:40:47;;;;;;;8.20;1.75;;;;;;;;;;4899337;29;20045;-94
2022/04/09 16:50:16;;;;;;;7.87;0.90;;;;;;;;;;4805216;29;20141;-93
2022/04/09 16:52:43;;;;;;;4.67;0.90;;;;;;;;;;4761725;29;20497;-91
2022/04/09 16:55:10;;;;;;;6.38;1.17;;;;;;;;;;4779763;29;20315;-90
2022/04/09 16:57:39;;;;;;;3.92;0.98;;;;;;;;;;4786459;30;20090;-93
2022/04/09 17:00:12;;;;;;;7.88;1.50;;;;;;;;;;4771567;29;20532;-93
2022/04/09 17:02:44;;;;;;;6.63;1.10;;;;;;;;;;4860546;29;20048;-92
2022/04/09 17:05:13;;;;;;;5.32;1.00;;;;;;;;;;4877088;29;20036;-93
2022/04/09 17:07:40;;;;;;;6.30;1.00;;;;;;;;;;4870791;29;20323;-92
2022/04/09 17:10:06;;;;;;;9.02;1.70;;;;;;;;;;4880777;29;20119;-91
2022/04/09 17:12:33;;;;;;;7.45;1.52;;;;;;;;;;4873147;29;20421;-92
2022/04/09 17:14:59;;;;;;;11.88;1.55;;;;;;;;;;4864337;29;20046;-88
2022/04/09 17:17:25;;;;;;;6.82;1.33;;;;;;;;;;4878804;29;20075;-89
2022/04/09 17:19:52;;;;;;;8.10;1.30;;;;;;;;;;4883826;29;20087;-89
2022/04/09 17:22:18;;;;;;;8.40;2.40;;;;;;;;;;4874388;29;20036;-91